Time;durP1;ratioP1;P1;durP2;ratioP2;P2;SDS_P1;SDS_P2;PMS_P1;PMS_P2;Temp;Humidity;BMP_temperature;BMP_pressure;BME280_temperature;BME280_humidity;BME280_pressure;Samples;Min_cycle;Max_cycle;Signal;HPM_P1;HPM_P2
2022/01/06 00:00:11;;;;;;;10.80;2.95;;;25.50;93.10;;;;;;5073047;28;20481;-55
2022/01/06 00:02:39;;;;;;;9.00;3.15;;;25.50;93.20;;;;;;5072649;28;20024;-60
2022/01/06 00:05:07;;;;;;;6.22;2.55;;;25.60;93.10;;;;;;5072958;28;20024;-56
2022/01/06 00:07:35;;;;;;;17.83;4.00;;;25.50;93.10;;;;;;5072653;28;20053;-57
2022/01/06 00:10:05;;;;;;;10.02;3.22;;;25.50;93.20;;;;;;5072682;28;20053;-55
2022/01/06 00:12:44;;;;;;;11.30;3.58;;;25.50;93.10;;;;;;5072623;28;20020;-53
2022/01/06 00:15:38;;;;;;;10.32;2.63;;;25.60;93.10;;;;;;5072762;28;20031;-54
2022/01/06 00:23:31;;;;;;;13.52;3.50;;;25.60;93.10;;;;;;5073557;28;20146;-56
2022/01/06 00:26:00;;;;;;;10.88;3.42;;;25.70;93.00;;;;;;5073375;28;20017;-60
2022/01/06 00:28:28;;;;;;;16.48;3.70;;;25.70;93.00;;;;;;5073172;28;20016;-57
2022/01/06 00:30:55;;;;;;;11.23;3.65;;;25.70;92.90;;;;;;5072721;28;20382;-50
2022/01/06 00:33:24;;;;;;;8.70;3.08;;;25.80;92.90;;;;;;5072858;28;20092;-60
2022/01/06 00:35:51;;;;;;;12.82;3.95;;;25.80;92.80;;;;;;5072573;28;20408;-56
2022/01/06 00:38:19;;;;;;;9.52;2.92;;;25.90;92.80;;;;;;5072210;28;20032;-53
2022/01/06 00:40:46;;;;;;;16.35;3.63;;;25.90;92.70;;;;;;5072175;28;20375;-58
2022/01/06 00:43:14;;;;;;;9.75;3.78;;;25.90;92.80;;;;;;5071047;28;20035;-57
2022/01/06 00:45:41;;;;;;;12.15;3.22;;;25.90;92.70;;;;;;5072168;28;20146;-52
2022/01/06 00:48:12;;;;;;;13.15;3.83;;;25.90;92.60;;;;;;5072187;28;20064;-56
2022/01/06 00:50:42;;;;;;;18.02;3.97;;;25.90;92.60;;;;;;5072490;28;20089;-53
2022/01/06 00:53:10;;;;;;;11.88;3.05;;;26.00;92.60;;;;;;5072595;28;20032;-55
2022/01/06 00:55:39;;;;;;;17.00;3.85;;;26.00;92.40;;;;;;5072390;28;20052;-56
2022/01/06 00:58:07;;;;;;;13.77;3.38;;;26.10;92.50;;;;;;5071867;28;20032;-59
2022/01/06 01:00:41;;;;;;;13.23;3.20;;;26.10;92.40;;;;;;5072424;28;20040;-59
2022/01/06 01:03:15;;;;;;;11.23;3.75;;;26.20;92.20;;;;;;5072377;28;20020;-55
2022/01/06 01:05:44;;;;;;;14.20;3.63;;;26.10;92.20;;;;;;5072203;28;20032;-57
2022/01/06 01:08:12;;;;;;;16.90;4.55;;;26.30;92.30;;;;;;5071918;28;20032;-57
2022/01/06 01:10:40;;;;;;;8.98;3.10;;;26.30;92.20;;;;;;5070113;28;20383;-55
2022/01/06 01:13:12;;;;;;;15.77;4.75;;;26.40;91.80;;;;;;5072448;28;20020;-59
2022/01/06 01:15:54;;;;;;;13.73;4.07;;;26.40;91.80;;;;;;5072057;28;20036;-61
2022/01/06 01:18:22;;;;;;;12.13;3.30;;;26.40;91.80;;;;;;5072254;28;20039;-61
2022/01/06 01:20:52;;;;;;;12.50;3.67;;;26.40;91.70;;;;;;5076170;28;20101;-56
2022/01/06 01:23:23;;;;;;;10.27;3.45;;;26.40;91.70;;;;;;5076183;28;20067;-59
2022/01/06 01:25:51;;;;;;;10.18;3.33;;;26.40;91.80;;;;;;5075843;28;20016;-59
2022/01/06 01:28:19;;;;;;;9.23;3.00;;;26.40;91.70;;;;;;5076655;28;20085;-59
2022/01/06 01:31:23;;;;;;;10.98;2.92;;;26.40;91.70;;;;;;5076364;28;20021;-60
2022/01/06 01:33:52;;;;;;;15.38;3.88;;;26.50;91.70;;;;;;5076226;28;20113;-51
2022/01/06 01:36:20;;;;;;;11.05;3.33;;;26.50;91.60;;;;;;5076039;28;20025;-59
2022/01/06 01:38:48;;;;;;;9.40;2.95;;;26.60;91.50;;;;;;5075739;28;20041;-58
2022/01/06 01:41:16;;;;;;;11.52;3.97;;;26.50;91.50;;;;;;5076366;28;20093;-60
2022/01/06 01:43:46;;;;;;;12.07;3.65;;;26.60;91.50;;;;;;5075936;28;20085;-61
2022/01/06 01:46:16;;;;;;;13.85;4.18;;;26.50;91.60;;;;;;5075069;28;20378;-49
2022/01/06 01:49:06;;;;;;;16.08;4.35;;;26.60;91.50;;;;;;5075762;28;20036;-53
2022/01/06 01:51:32;;;;;;;11.13;3.42;;;26.70;91.40;;;;;;5075426;28;20025;-56
2022/01/06 01:54:01;;;;;;;9.80;3.35;;;26.70;91.40;;;;;;5075334;28;20031;-53
2022/01/06 01:56:29;;;;;;;6.20;2.42;;;26.70;91.30;;;;;;5075704;28;20467;-57
2022/01/06 01:58:57;;;;;;;8.30;3.17;;;26.70;91.40;;;;;;5075444;28;20028;-58
2022/01/06 02:01:25;;;;;;;8.88;2.47;;;26.60;91.50;;;;;;5075690;28;20017;-50
2022/01/06 02:03:52;;;;;;;9.05;2.88;;;26.60;91.50;;;;;;5073627;28;20134;-57
2022/01/06 02:06:21;;;;;;;9.40;2.63;;;26.50;91.60;;;;;;5075547;28;20082;-56
2022/01/06 02:08:48;;;;;;;11.55;3.75;;;26.50;91.60;;;;;;5075780;28;20029;-59
2022/01/06 02:11:16;;;;;;;13.18;4.15;;;26.40;91.60;;;;;;5075590;28;20483;-57
2022/01/06 02:13:48;;;;;;;11.82;3.53;;;26.50;91.50;;;;;;5074836;28;20047;-55
2022/01/06 02:16:23;;;;;;;12.82;3.03;;;26.50;91.60;;;;;;5075128;28;20048;-61
2022/01/06 02:18:52;;;;;;;11.10;2.92;;;26.50;91.70;;;;;;5075292;28;20043;-54
2022/01/06 02:21:20;;;;;;;11.93;4.13;;;26.50;91.70;;;;;;5074057;28;20043;-59
2022/01/06 02:23:48;;;;;;;11.75;2.90;;;26.50;91.80;;;;;;5074937;28;20105;-53
2022/01/06 02:26:15;;;;;;;9.93;3.08;;;26.50;91.80;;;;;;5074540;28;20021;-60
2022/01/06 02:28:43;;;;;;;8.63;2.95;;;26.40;91.90;;;;;;5074867;28;20099;-59
2022/01/06 02:31:11;;;;;;;8.20;3.20;;;26.40;91.90;;;;;;5074267;28;20539;-54
2022/01/06 02:33:39;;;;;;;16.75;3.95;;;26.50;91.90;;;;;;5073515;28;20036;-53
2022/01/06 02:36:06;;;;;;;14.27;3.45;;;26.60;91.70;;;;;;5074747;28;20028;-51
2022/01/06 02:38:34;;;;;;;8.02;3.10;;;26.60;91.70;;;;;;5074805;28;20037;-58
2022/01/06 02:41:02;;;;;;;11.20;3.38;;;26.60;91.70;;;;;;5074859;28;20463;-59
2022/01/06 02:43:30;;;;;;;10.13;3.15;;;26.70;91.60;;;;;;5074853;28;20024;-58
2022/01/06 02:45:58;;;;;;;9.63;3.78;;;26.70;91.70;;;;;;5074306;28;20029;-54
2022/01/06 02:48:25;;;;;;;7.53;2.78;;;26.70;91.50;;;;;;5074580;28;20410;-58
2022/01/06 02:50:53;;;;;;;15.15;3.60;;;26.70;91.60;;;;;;5074387;28;20025;-56
2022/01/06 02:53:21;;;;;;;8.25;3.03;;;26.80;91.50;;;;;;5074002;28;20031;-58
2022/01/06 02:55:53;;;;;;;11.25;3.83;;;26.80;91.50;;;;;;5073997;28;20044;-56
2022/01/06 02:58:24;;;;;;;13.88;3.55;;;26.80;91.40;;;;;;5074584;28;20068;-57
2022/01/06 03:00:52;;;;;;;10.75;2.80;;;26.80;91.30;;;;;;5074332;28;20103;-50
2022/01/06 03:03:19;;;;;;;11.75;3.95;;;26.90;91.40;;;;;;5074563;28;20475;-52
2022/01/06 03:05:47;;;;;;;9.48;2.88;;;26.90;91.40;;;;;;5074201;28;20025;-56
2022/01/06 03:08:14;;;;;;;13.40;3.60;;;26.80;91.40;;;;;;5073764;28;20025;-49
2022/01/06 03:10:43;;;;;;;10.15;3.13;;;26.90;91.30;;;;;;5073984;28;20029;-54
2022/01/06 03:13:11;;;;;;;9.95;3.00;;;26.90;91.30;;;;;;5074303;28;20104;-57
2022/01/06 03:15:38;;;;;;;9.82;3.00;;;27.00;91.30;;;;;;5073907;28;20047;-56
2022/01/06 03:18:06;;;;;;;11.85;3.28;;;26.90;91.30;;;;;;5073629;28;20072;-55
2022/01/06 03:20:34;;;;;;;9.20;3.00;;;26.90;91.30;;;;;;5073732;28;20024;-59
2022/01/06 03:23:01;;;;;;;18.90;4.15;;;26.90;91.40;;;;;;5073800;28;20490;-60
2022/01/06 03:25:29;;;;;;;14.52;3.78;;;26.90;91.30;;;;;;5073638;28;20024;-58
2022/01/06 03:27:56;;;;;;;12.75;3.60;;;26.90;91.20;;;;;;5073674;28;20486;-54
2022/01/06 03:30:24;;;;;;;10.65;3.63;;;26.90;91.20;;;;;;5073769;28;20033;-52
2022/01/06 03:32:53;;;;;;;12.63;3.17;;;27.00;91.20;;;;;;5073625;28;20032;-53
2022/01/06 03:35:23;;;;;;;8.05;2.53;;;26.90;91.40;;;;;;5055898;28;20020;-55
2022/01/06 03:37:50;;;;;;;7.97;2.83;;;26.90;91.50;;;;;;5073837;28;20039;-59
2022/01/06 03:40:18;;;;;;;14.35;3.33;;;26.90;91.50;;;;;;5073583;28;20059;-56
2022/01/06 03:42:46;;;;;;;10.00;2.95;;;26.90;91.50;;;;;;5073169;28;20028;-57
2022/01/06 03:45:16;;;;;;;8.77;2.67;;;26.90;91.40;;;;;;5073178;28;20032;-57
2022/01/06 03:47:44;;;;;;;8.98;2.88;;;26.90;91.40;;;;;;5073404;28;20430;-54
2022/01/06 03:50:16;;;;;;;11.82;3.17;;;26.90;91.50;;;;;;5073061;28;20044;-56
2022/01/06 03:52:44;;;;;;;8.63;2.92;;;26.90;91.40;;;;;;5073293;28;20454;-60
2022/01/06 03:55:15;;;;;;;11.75;3.00;;;26.90;91.40;;;;;;5072973;28;20056;-59
2022/01/06 03:57:44;;;;;;;12.27;3.30;;;26.90;91.40;;;;;;5073449;28;20442;-57
2022/01/06 04:00:17;;;;;;;11.13;3.25;;;26.90;91.40;;;;;;5073293;28;20035;-61
2022/01/06 04:02:45;;;;;;;10.43;3.35;;;26.90;91.40;;;;;;5072291;28;20123;-60
2022/01/06 04:05:14;;;;;;;11.40;3.20;;;26.90;91.20;;;;;;5072145;28;20471;-61
2022/01/06 04:07:42;;;;;;;9.65;2.97;;;26.90;91.30;;;;;;5073187;28;20031;-61
2022/01/06 04:10:11;;;;;;;11.07;3.95;;;26.90;91.40;;;;;;5073113;28;20081;-55
2022/01/06 04:12:39;;;;;;;9.52;2.88;;;26.90;91.50;;;;;;5072965;28;20069;-58
2022/01/06 04:15:15;;;;;;;14.63;3.95;;;26.90;91.50;;;;;;5073066;28;20028;-58
2022/01/06 04:17:43;;;;;;;10.60;3.60;;;26.90;91.40;;;;;;5073063;28;20029;-56
2022/01/06 04:20:12;;;;;;;10.82;3.10;;;26.90;91.40;;;;;;5072690;28;20028;-55
2022/01/06 04:22:40;;;;;;;11.68;3.47;;;26.90;91.50;;;;;;5073024;28;20019;-56
2022/01/06 04:25:08;;;;;;;9.30;3.10;;;26.90;91.30;;;;;;5072971;28;20039;-54
2022/01/06 04:27:36;;;;;;;10.80;3.28;;;26.90;91.40;;;;;;5073079;28;20449;-58
2022/01/06 04:30:06;;;;;;;7.95;3.00;;;26.90;91.30;;;;;;5072741;28;20078;-60
2022/01/06 04:32:34;;;;;;;14.02;4.07;;;26.80;91.50;;;;;;5071971;28;20033;-60
2022/01/06 04:35:02;;;;;;;8.07;3.00;;;26.90;91.40;;;;;;5073188;28;20123;-59
2022/01/06 04:37:29;;;;;;;9.50;3.50;;;26.80;91.50;;;;;;5072752;28;20032;-57
2022/01/06 04:39:57;;;;;;;13.95;3.30;;;26.90;91.30;;;;;;5071341;28;20031;-57
2022/01/06 04:42:24;;;;;;;11.05;3.10;;;26.90;91.30;;;;;;5072811;28;20030;-58
2022/01/06 04:44:51;;;;;;;13.02;3.50;;;26.90;91.40;;;;;;5072589;28;20029;-58
2022/01/06 04:47:22;;;;;;;12.95;3.78;;;26.90;91.40;;;;;;5072710;28;20467;-59
2022/01/06 04:49:49;;;;;;;9.52;3.00;;;26.90;91.50;;;;;;5071551;28;20025;-59
2022/01/06 04:52:17;;;;;;;11.65;3.40;;;26.80;91.50;;;;;;5072449;28;20028;-57
2022/01/06 04:54:44;;;;;;;12.20;3.88;;;26.90;91.50;;;;;;5074685;28;20518;-60
2022/01/06 04:57:12;;;;;;;11.65;4.00;;;26.80;91.40;;;;;;5076712;28;20024;-57
2022/01/06 04:59:39;;;;;;;10.43;3.70;;;26.80;91.50;;;;;;5076242;28;20146;-57
2022/01/06 05:02:07;;;;;;;9.13;3.38;;;26.80;91.60;;;;;;5076574;28;20463;-58
2022/01/06 05:04:34;;;;;;;14.32;3.97;;;26.80;91.80;;;;;;5076582;28;20429;-56
2022/01/06 05:07:01;;;;;;;12.40;4.22;;;26.70;91.70;;;;;;5076550;28;20059;-57
2022/01/06 05:09:29;;;;;;;11.07;3.58;;;26.80;91.50;;;;;;5076002;28;20024;-58
2022/01/06 05:11:56;;;;;;;11.25;3.03;;;26.80;91.60;;;;;;5076397;28;20056;-58
2022/01/06 05:14:24;;;;;;;9.48;2.80;;;26.70;91.70;;;;;;5076324;28;20056;-57
2022/01/06 05:16:52;;;;;;;9.95;3.35;;;26.70;91.80;;;;;;5076088;28;20488;-60
2022/01/06 05:19:19;;;;;;;9.63;3.08;;;26.70;91.80;;;;;;5076143;28;20463;-54
2022/01/06 05:21:46;;;;;;;10.98;3.22;;;26.70;91.80;;;;;;5076810;28;20024;-57
2022/01/06 05:24:16;;;;;;;10.45;4.03;;;26.70;91.90;;;;;;5075866;28;20113;-58
2022/01/06 05:26:45;;;;;;;14.77;3.13;;;26.70;91.80;;;;;;5076572;28;20104;-55
2022/01/06 05:29:13;;;;;;;11.30;3.78;;;26.70;91.70;;;;;;5075984;28;20025;-59
2022/01/06 05:31:41;;;;;;;11.75;3.17;;;26.70;91.80;;;;;;5076217;28;20027;-59
2022/01/06 05:34:09;;;;;;;13.15;4.30;;;26.70;91.70;;;;;;5075829;28;20463;-55
2022/01/06 05:36:36;;;;;;;11.70;3.88;;;26.70;91.70;;;;;;5075955;28;20368;-59
2022/01/06 05:39:04;;;;;;;10.20;2.88;;;26.70;91.80;;;;;;5075719;28;20072;-54
2022/01/06 05:41:32;;;;;;;11.93;3.45;;;26.70;91.80;;;;;;5075553;28;20112;-56
2022/01/06 05:44:00;;;;;;;15.00;3.80;;;26.70;91.80;;;;;;5075664;28;20082;-60
2022/01/06 05:46:30;;;;;;;9.55;2.83;;;26.70;91.80;;;;;;5074761;28;20104;-53
2022/01/06 05:48:58;;;;;;;12.10;3.70;;;26.80;91.80;;;;;;5075286;28;20116;-61
2022/01/06 05:51:25;;;;;;;13.05;3.72;;;26.70;91.80;;;;;;5075536;28;20059;-57
2022/01/06 05:53:53;;;;;;;10.88;2.83;;;26.70;91.70;;;;;;5075197;28;20156;-59
2022/01/06 05:56:22;;;;;;;11.73;3.40;;;26.70;91.70;;;;;;5076084;28;20036;-56
2022/01/06 05:58:49;;;;;;;12.15;2.90;;;26.70;91.90;;;;;;5075475;28;20062;-52
2022/01/06 06:01:17;;;;;;;9.32;3.33;;;26.70;91.90;;;;;;5075600;28;20024;-60
2022/01/06 06:03:44;;;;;;;9.95;3.25;;;26.60;92.00;;;;;;5075569;28;20418;-54
2022/01/06 06:06:11;;;;;;;14.40;4.03;;;26.60;92.00;;;;;;5074538;28;20135;-57
2022/01/06 06:08:38;;;;;;;12.15;3.47;;;26.70;92.00;;;;;;5074119;28;20047;-60
2022/01/06 06:11:06;;;;;;;15.48;4.03;;;26.60;92.10;;;;;;5075327;28;20048;-53
2022/01/06 06:13:34;;;;;;;9.60;3.65;;;26.60;92.10;;;;;;5073922;28;20485;-48
2022/01/06 06:16:01;;;;;;;9.20;2.92;;;26.50;92.10;;;;;;5075268;28;20040;-55
2022/01/06 06:18:28;;;;;;;11.77;3.45;;;26.50;92.10;;;;;;5074914;28;20044;-53
2022/01/06 06:20:56;;;;;;;15.90;3.60;;;26.50;92.10;;;;;;5074366;28;20023;-60
2022/01/06 06:23:23;;;;;;;14.23;3.72;;;26.50;92.20;;;;;;5075441;28;20048;-56
2022/01/06 06:25:51;;;;;;;10.90;3.58;;;26.50;92.20;;;;;;5074127;28;20099;-56
2022/01/06 06:28:18;;;;;;;10.68;2.88;;;26.50;92.20;;;;;;5074845;28;20463;-58
2022/01/06 06:30:46;;;;;;;8.38;3.10;;;26.40;92.20;;;;;;5074765;28;20098;-59
2022/01/06 06:33:13;;;;;;;12.00;3.20;;;26.40;92.30;;;;;;5074734;28;20119;-57
2022/01/06 06:35:40;;;;;;;11.05;3.20;;;26.40;92.40;;;;;;5074916;28;20037;-58
2022/01/06 06:38:11;;;;;;;13.82;3.60;;;26.40;92.40;;;;;;5074191;28;20039;-61
2022/01/06 06:40:38;;;;;;;10.93;3.30;;;26.30;92.50;;;;;;5074934;28;20130;-56
2022/01/06 06:43:05;;;;;;;11.27;3.50;;;26.30;92.50;;;;;;5074844;28;20055;-59
2022/01/06 06:45:33;;;;;;;11.23;3.33;;;26.30;92.50;;;;;;5074434;28;20020;-52
2022/01/06 06:48:00;;;;;;;13.07;2.85;;;26.30;92.50;;;;;;5074109;28;20129;-60
2022/01/06 06:50:27;;;;;;;9.00;3.08;;;26.30;92.60;;;;;;5074723;28;20017;-60
2022/01/06 06:52:55;;;;;;;11.18;3.10;;;26.30;92.60;;;;;;5075297;28;20024;-57
2022/01/06 06:55:22;;;;;;;11.18;3.65;;;26.30;92.60;;;;;;5074607;28;20486;-61
2022/01/06 06:57:50;;;;;;;10.10;3.33;;;26.30;92.60;;;;;;5074801;28;20029;-56
2022/01/06 07:00:18;;;;;;;9.98;3.03;;;26.30;92.60;;;;;;5074609;28;20099;-61
2022/01/06 07:02:45;;;;;;;9.43;3.25;;;26.30;92.60;;;;;;5074122;28;20039;-57
2022/01/06 07:05:15;;;;;;;11.88;3.50;;;26.30;92.70;;;;;;5074267;28;20024;-52
2022/01/06 07:07:44;;;;;;;9.02;2.78;;;26.30;92.70;;;;;;5073850;28;20025;-59
2022/01/06 07:10:11;;;;;;;13.32;3.50;;;26.20;92.70;;;;;;5074337;28;20024;-54
2022/01/06 07:12:40;;;;;;;10.30;3.10;;;26.20;92.70;;;;;;5074534;28;20052;-48
2022/01/06 07:15:10;;;;;;;7.40;2.60;;;26.20;92.60;;;;;;5074502;28;20099;-59
2022/01/06 07:17:38;;;;;;;8.40;2.92;;;26.20;92.60;;;;;;5073393;28;20036;-59
2022/01/06 07:20:06;;;;;;;10.35;2.92;;;26.20;92.60;;;;;;5072287;28;20016;-49
2022/01/06 07:22:33;;;;;;;9.30;2.45;;;26.20;92.70;;;;;;5074327;28;20032;-61
2022/01/06 07:25:01;;;;;;;11.55;3.20;;;26.10;92.70;;;;;;5073003;28;20489;-59
2022/01/06 07:27:29;;;;;;;9.95;3.08;;;26.10;93.10;;;;;;5074077;28;20024;-56
2022/01/06 07:29:56;;;;;;;11.05;3.10;;;26.10;92.90;;;;;;5073632;28;20035;-57
2022/01/06 07:32:27;;;;;;;13.13;3.25;;;26.10;92.80;;;;;;5074057;28;20025;-51
2022/01/06 07:34:54;;;;;;;7.88;2.80;;;26.10;93.20;;;;;;5074937;28;20025;-61
2022/01/06 07:37:21;;;;;;;11.38;3.67;;;26.00;93.00;;;;;;5073937;28;20043;-56
2022/01/06 07:39:49;;;;;;;10.27;2.83;;;26.00;93.00;;;;;;5073407;28;20116;-56
2022/01/06 07:42:16;;;;;;;13.30;3.78;;;26.00;93.00;;;;;;5072977;28;20048;-58
2022/01/06 07:44:46;;;;;;;11.45;3.13;;;26.00;93.00;;;;;;5071983;28;20100;-60
2022/01/06 07:47:15;;;;;;;11.88;3.45;;;26.00;93.10;;;;;;5073443;28;20028;-57
2022/01/06 07:49:42;;;;;;;9.73;3.35;;;25.90;93.00;;;;;;5073298;28;20029;-58
2022/01/06 07:52:10;;;;;;;12.55;3.58;;;25.90;93.10;;;;;;5073176;28;20016;-60
2022/01/06 07:54:40;;;;;;;10.07;3.13;;;25.90;93.20;;;;;;5071692;28;20514;-58
2022/01/06 07:57:08;;;;;;;14.45;3.83;;;25.90;93.20;;;;;;5073085;28;20438;-56
2022/01/06 07:59:36;;;;;;;13.48;4.10;;;25.90;93.20;;;;;;5072703;28;20038;-57
2022/01/06 08:02:03;;;;;;;10.00;3.63;;;25.90;93.20;;;;;;5072683;28;20031;-60
2022/01/06 08:04:33;;;;;;;9.25;3.20;;;25.90;93.20;;;;;;5072578;28;20490;-57
2022/01/06 08:07:01;;;;;;;8.70;2.97;;;25.90;93.30;;;;;;5072598;28;20070;-61
2022/01/06 08:09:28;;;;;;;10.25;2.67;;;25.90;93.20;;;;;;5072816;28;20025;-63
2022/01/06 08:11:56;;;;;;;10.57;3.67;;;25.90;93.30;;;;;;5073015;28;20021;-60
2022/01/06 08:14:23;;;;;;;10.60;2.72;;;25.90;93.30;;;;;;5072804;28;20028;-58
2022/01/06 08:16:51;;;;;;;11.73;2.97;;;25.80;93.20;;;;;;5072866;28;20016;-60
2022/01/06 08:19:18;;;;;;;13.75;3.50;;;25.80;93.30;;;;;;5072288;28;20064;-62
2022/01/06 08:21:46;;;;;;;13.23;3.35;;;25.80;93.30;;;;;;5072374;28;20085;-62
2022/01/06 08:24:13;;;;;;;12.15;3.90;;;25.80;93.30;;;;;;5072561;28;20727;-56
2022/01/06 08:26:41;;;;;;;11.95;3.88;;;25.80;93.30;;;;;;5073566;28;20025;-60
2022/01/06 08:29:08;;;;;;;12.80;4.18;;;25.80;93.40;;;;;;5073059;28;20584;-63
2022/01/06 08:31:39;;;;;;;15.32;3.63;;;25.70;93.40;;;;;;5073394;28;20090;-61
2022/01/06 08:34:06;;;;;;;12.68;3.83;;;25.70;93.30;;;;;;5072762;28;20024;-56
2022/01/06 08:36:33;;;;;;;9.73;3.20;;;25.70;93.30;;;;;;5073146;28;20082;-60
2022/01/06 08:39:01;;;;;;;13.85;3.60;;;25.70;93.40;;;;;;5071589;28;20036;-60
2022/01/06 08:41:28;;;;;;;8.50;3.63;;;25.70;93.40;;;;;;5072943;28;20016;-59
2022/01/06 08:43:56;;;;;;;10.90;3.58;;;25.70;93.40;;;;;;5072732;28;20063;-60
2022/01/06 08:46:23;;;;;;;9.55;3.08;;;25.70;93.50;;;;;;5072933;28;20033;-60
2022/01/06 08:48:51;;;;;;;10.68;3.30;;;25.70;93.40;;;;;;5072877;28;20090;-61
2022/01/06 08:51:20;;;;;;;9.27;2.90;;;25.70;93.50;;;;;;5072771;28;20099;-60
2022/01/06 08:53:47;;;;;;;14.40;4.18;;;25.70;93.50;;;;;;5072915;28;20029;-59
2022/01/06 08:56:14;;;;;;;12.55;3.05;;;25.60;93.50;;;;;;5072513;28;20113;-57
2022/01/06 08:58:42;;;;;;;10.80;3.58;;;25.60;93.50;;;;;;5072236;28;20416;-59
2022/01/06 09:01:09;;;;;;;12.02;3.50;;;25.60;93.60;;;;;;5072436;28;20104;-56
2022/01/06 09:03:37;;;;;;;11.35;3.15;;;25.60;93.60;;;;;;5072608;28;20033;-61
2022/01/06 09:06:04;;;;;;;12.50;3.67;;;25.60;93.60;;;;;;5072509;28;20104;-60
2022/01/06 09:08:31;;;;;;;14.95;3.40;;;25.50;93.70;;;;;;5071367;28;20033;-55
2022/01/06 09:10:59;;;;;;;13.52;3.75;;;25.50;93.70;;;;;;5072575;28;20024;-62
2022/01/06 09:13:26;;;;;;;13.88;4.28;;;25.50;93.70;;;;;;5072514;28;20056;-61
2022/01/06 09:15:54;;;;;;;10.68;3.28;;;25.50;93.70;;;;;;5071815;28;20040;-57
2022/01/06 09:18:21;;;;;;;13.63;4.18;;;25.50;93.70;;;;;;5072219;28;20036;-53
2022/01/06 09:20:49;;;;;;;12.20;3.95;;;25.50;93.80;;;;;;5072249;28;20049;-58
2022/01/06 09:23:17;;;;;;;10.13;2.83;;;25.50;93.80;;;;;;5072378;28;20497;-52
2022/01/06 09:25:44;;;;;;;8.05;3.05;;;25.40;93.80;;;;;;5072354;28;20199;-61
2022/01/06 09:28:13;;;;;;;10.43;2.95;;;25.40;93.90;;;;;;5072134;28;20033;-60
2022/01/06 09:30:40;;;;;;;9.73;3.22;;;25.40;93.90;;;;;;5072178;28;20028;-60
2022/01/06 09:33:08;;;;;;;11.20;3.47;;;25.40;93.90;;;;;;5072582;28;20100;-61
2022/01/06 09:35:35;;;;;;;11.38;3.17;;;25.40;93.90;;;;;;5073012;28;20024;-61
2022/01/06 09:38:03;;;;;;;11.35;3.72;;;25.40;94.00;;;;;;5072098;28;20100;-57
2022/01/06 09:40:31;;;;;;;17.27;4.65;;;25.40;94.20;;;;;;5074097;28;20040;-55
2022/01/06 09:42:58;;;;;;;21.40;6.05;;;25.30;94.70;;;;;;5075949;28;20020;-57
2022/01/06 09:45:27;;;;;;;23.95;5.28;;;25.20;95.00;;;;;;5076024;28;20128;-57
2022/01/06 09:48:02;;;;;;;24.17;5.80;;;25.20;94.90;;;;;;5069310;28;20029;-57
2022/01/06 09:50:29;;;;;;;24.52;6.03;;;25.20;95.10;;;;;;5071256;28;20554;-54
2022/01/06 09:52:57;;;;;;;22.67;5.70;;;25.10;95.20;;;;;;5071556;28;20032;-58
2022/01/06 09:55:24;;;;;;;21.25;5.30;;;25.10;95.20;;;;;;5070958;28;20048;-57
2022/01/06 09:58:07;;;;;;;26.33;5.78;;;25.10;95.20;;;;;;5070714;28;20760;-51
2022/01/06 10:00:36;;;;;;;26.00;5.80;;;25.10;95.20;;;;;;5072052;28;20023;-52
2022/01/06 10:03:06;;;;;;;27.55;6.38;;;25.00;95.20;;;;;;5053438;28;20390;-59
2022/01/06 10:05:46;;;;;;;28.05;5.80;;;24.90;95.00;;;;;;5075412;28;20043;-59
2022/01/06 10:08:14;;;;;;;22.45;5.15;;;24.90;95.10;;;;;;5075328;28;20029;-58
2022/01/06 10:10:42;;;;;;;21.30;5.32;;;25.00;95.10;;;;;;5075496;28;20498;-60
2022/01/06 10:13:15;;;;;;;21.50;4.88;;;24.90;95.10;;;;;;5075258;28;20036;-58
2022/01/06 10:15:43;;;;;;;21.67;5.80;;;25.00;95.10;;;;;;5075594;28;20028;-52
2022/01/06 10:18:16;;;;;;;24.83;5.70;;;25.00;95.00;;;;;;5074924;28;20029;-57
2022/01/06 10:20:47;;;;;;;19.85;5.85;;;25.00;95.00;;;;;;5075677;28;20028;-62
2022/01/06 10:23:16;;;;;;;22.50;5.00;;;25.00;95.00;;;;;;5075495;28;20059;-62
2022/01/06 10:25:49;;;;;;;20.55;6.15;;;25.00;94.90;;;;;;5075271;28;20070;-52
2022/01/06 10:28:22;;;;;;;18.48;5.18;;;25.00;94.90;;;;;;5075115;28;20479;-60
2022/01/06 10:30:53;;;;;;;19.92;4.97;;;25.00;94.90;;;;;;5075148;28;20049;-53
2022/01/06 10:33:33;;;;;;;28.97;5.43;;;25.00;94.90;;;;;;5075260;28;20024;-61
2022/01/06 10:36:10;;;;;;;15.02;4.32;;;25.00;95.10;;;;;;5074071;28;20052;-57
2022/01/06 10:38:38;;;;;;;18.67;4.88;;;25.00;94.90;;;;;;5074267;28;20079;-60
2022/01/06 10:41:17;;;;;;;21.80;4.60;;;25.00;94.80;;;;;;5075015;28;20130;-57
2022/01/06 10:43:57;;;;;;;16.75;4.70;;;25.00;94.80;;;;;;5075247;28;20080;-61
2022/01/06 10:46:37;;;;;;;18.55;4.20;;;25.00;94.80;;;;;;5075928;28;20020;-56
2022/01/06 10:49:16;;;;;;;14.95;4.25;;;25.00;94.80;;;;;;5075422;28;20028;-57
2022/01/06 10:51:51;;;;;;;17.77;4.22;;;25.00;94.80;;;;;;5074580;28;20048;-56
2022/01/06 10:54:24;;;;;;;18.98;4.93;;;25.00;94.80;;;;;;5074633;28;20048;-61
2022/01/06 10:57:01;;;;;;;19.23;4.35;;;25.00;94.80;;;;;;5074904;28;20025;-58
2022/01/06 10:59:32;;;;;;;15.25;4.13;;;25.00;94.80;;;;;;5075321;28;20071;-61
2022/01/06 11:02:01;;;;;;;14.05;4.50;;;25.00;94.70;;;;;;5074955;28;20031;-62
2022/01/06 11:04:31;;;;;;;19.45;5.20;;;25.00;94.80;;;;;;5074954;28;20086;-59
2022/01/06 11:06:58;;;;;;;17.40;4.50;;;25.00;94.70;;;;;;5074988;28;20016;-60
2022/01/06 11:09:29;;;;;;;17.17;4.20;;;25.00;94.70;;;;;;5074803;28;20016;-62
2022/01/06 11:14:29;;;;;;;14.30;4.03;;;25.00;94.70;;;;;;5074472;28;20387;-58
2022/01/06 11:17:04;;;;;;;14.20;4.50;;;24.90;94.70;;;;;;5074984;28;20032;-64
2022/01/06 11:19:31;;;;;;;19.10;4.38;;;24.90;94.70;;;;;;5074638;28;20047;-63
2022/01/06 11:22:05;;;;;;;15.80;4.22;;;24.90;94.60;;;;;;5073792;28;20043;-64
2022/01/06 11:24:34;;;;;;;17.38;5.07;;;24.90;94.70;;;;;;5074455;28;20074;-62
2022/01/06 11:27:04;;;;;;;15.00;4.18;;;24.90;94.70;;;;;;5074063;28;20039;-53
2022/01/06 11:29:40;;;;;;;14.65;4.55;;;24.90;94.70;;;;;;5074357;28;20078;-61
2022/01/06 11:32:25;;;;;;;16.15;4.35;;;24.90;94.60;;;;;;5074015;28;20025;-58
2022/01/06 11:35:07;;;;;;;14.57;4.82;;;24.90;94.60;;;;;;5074118;28;20506;-60
2022/01/06 11:37:48;;;;;;;;;;;24.90;94.60;;;;;;5074387;28;20031;-56
2022/01/06 11:40:33;;;;;;;13.60;4.05;;;24.90;94.70;;;;;;5073948;28;20286;-62
2022/01/06 11:43:01;;;;;;;15.55;3.92;;;24.90;94.70;;;;;;5073942;28;20028;-60
2022/01/06 11:45:29;;;;;;;16.42;4.43;;;24.90;94.70;;;;;;5073903;28;20028;-62
2022/01/06 11:48:07;;;;;;;14.75;4.28;;;24.90;94.70;;;;;;5073865;28;20025;-60
2022/01/06 11:51:00;;;;;;;13.13;3.95;;;24.90;94.60;;;;;;5074283;28;20081;-62
2022/01/06 11:53:34;;;;;;;12.88;4.00;;;24.90;94.70;;;;;;5071410;28;20032;-61
2022/01/06 11:56:17;;;;;;;15.60;4.20;;;24.90;94.70;;;;;;5073526;28;20120;-60
2022/01/06 11:59:05;;;;;;;16.75;4.70;;;24.90;94.70;;;;;;5073582;28;20036;-62
2022/01/06 12:01:50;;;;;;;15.57;4.32;;;24.90;94.70;;;;;;5073962;28;20151;-63
2022/01/06 12:04:22;;;;;;;10.25;3.80;;;24.90;94.70;;;;;;5073102;28;20024;-57
2022/01/06 12:06:50;;;;;;;14.23;3.78;;;24.90;94.70;;;;;;5072387;28;20083;-60
2022/01/06 12:09:20;;;;;;;14.35;4.57;;;24.90;94.70;;;;;;5073673;28;20028;-65
2022/01/06 12:12:00;;;;;;;14.07;3.50;;;24.90;94.70;;;;;;5072236;28;20039;-60
2022/01/06 12:14:35;;;;;;;15.70;3.47;;;24.90;94.70;;;;;;5073502;28;20050;-62
2022/01/06 12:17:12;;;;;;;14.98;4.50;;;24.90;94.60;;;;;;5073700;28;20020;-61
2022/01/06 12:19:39;;;;;;;18.33;4.03;;;24.80;94.70;;;;;;5072030;28;20090;-62
2022/01/06 12:22:11;;;;;;;16.80;4.30;;;24.90;94.70;;;;;;5071978;28;20017;-63
2022/01/06 12:24:38;;;;;;;13.20;3.67;;;24.90;94.70;;;;;;5073208;28;20028;-60
2022/01/06 12:27:06;;;;;;;15.18;3.92;;;24.80;94.70;;;;;;5073067;28;20033;-62
2022/01/06 12:29:38;;;;;;;16.38;4.38;;;24.80;94.70;;;;;;5073256;28;20383;-61
2022/01/06 12:32:12;;;;;;;12.70;3.83;;;24.80;94.70;;;;;;5073233;28;20050;-61
2022/01/06 12:34:44;;;;;;;14.68;4.53;;;24.80;94.70;;;;;;5072264;28;20464;-62
2022/01/06 12:37:11;;;;;;;16.48;4.40;;;24.80;94.70;;;;;;5073114;28;20028;-64
2022/01/06 12:39:38;;;;;;;16.55;4.32;;;24.80;94.70;;;;;;5073469;28;20111;-61
2022/01/06 12:42:06;;;;;;;15.93;3.78;;;24.80;94.70;;;;;;5073160;28;20070;-58
2022/01/06 12:44:34;;;;;;;14.70;3.80;;;24.80;94.70;;;;;;5073311;28;20060;-63
2022/01/06 12:47:09;;;;;;;14.10;3.97;;;24.80;94.70;;;;;;5071964;28;20040;-60
2022/01/06 12:49:39;;;;;;;13.13;3.47;;;24.80;94.70;;;;;;5073629;28;20108;-60
2022/01/06 12:52:08;;;;;;;12.18;3.58;;;24.80;94.80;;;;;;5073246;28;20017;-60
2022/01/06 12:54:40;;;;;;;18.27;4.85;;;24.80;94.80;;;;;;5072977;28;20601;-58
2022/01/06 12:57:10;;;;;;;14.63;3.60;;;24.80;94.80;;;;;;5073127;28;20532;-61